Terminal Aerodrome Forecast
Issued by NWS

Current Version | Previous Version | Text Only | Print | Product List | Glossary On
Versions: 1 2 3 4 5 6 7 8 9 10 11 12 13 14
000
FTUS41 KBTV 312333
TAFMPV
TAF
KMPV 312333Z 0100/0124 VRB03KT P6SM FEW110
     FM010800 VRB03KT 3SM BR SCT100
     FM011000 22006KT 6SM BR VCSH SCT050 SCT110
     FM011400 25009G15KT P6SM BKN110=

USA.gov is the U.S. government's official web portal to all federal, state and local government web resources and services.